createdAt,value
2019-02-06T00:01:19.209Z,11.73
2019-02-06T00:03:55.282Z,13.60
2019-02-06T00:06:27.080Z,14.00
2019-02-06T00:09:00.649Z,12.40
2019-02-06T00:11:35.132Z,13.27
2019-02-06T00:14:06.793Z,13.90
2019-02-06T00:16:40.125Z,12.63
2019-02-06T00:19:12.196Z,12.53
2019-02-06T00:21:44.532Z,13.53
2019-02-06T00:24:16.154Z,12.57
2019-02-06T00:26:47.809Z,12.67
2019-02-06T00:29:19.461Z,12.50
2019-02-06T00:31:52.908Z,13.30
2019-02-06T00:34:24.661Z,11.60
2019-02-06T00:36:56.309Z,12.80
2019-02-06T00:39:34.597Z,11.60
2019-02-06T00:42:06.344Z,13.10
2019-02-06T00:44:52.461Z,12.80
2019-02-06T00:47:24.114Z,11.83
2019-02-06T00:50:03.358Z,12.87
2019-02-06T00:52:34.994Z,11.47
2019-02-06T00:55:06.743Z,12.97
2019-02-06T00:57:42.513Z,11.30
2019-02-06T01:00:21.460Z,12.20
2019-02-06T01:02:53.305Z,14.03
2019-02-06T01:05:25.144Z,12.93
2019-02-06T01:07:56.885Z,12.97
2019-02-06T01:10:28.977Z,13.57
2019-02-06T01:13:00.709Z,13.30
2019-02-06T01:15:32.461Z,13.07
2019-02-06T01:18:04.902Z,13.70
2019-02-06T01:20:36.626Z,14.73
2019-02-06T01:23:08.398Z,12.83
2019-02-06T01:25:43.264Z,13.80
2019-02-06T01:28:14.902Z,12.63
2019-02-06T01:30:51.813Z,14.47
2019-02-06T01:33:23.437Z,13.97
2019-02-06T01:35:55.174Z,11.77
2019-02-06T01:38:26.817Z,13.03
2019-02-06T01:40:58.466Z,13.37
2019-02-06T01:43:30.112Z,14.33
2019-02-06T01:46:02.153Z,12.80
2019-02-06T01:48:33.783Z,14.80
2019-02-06T01:51:05.623Z,15.90
2019-02-06T01:53:37.360Z,14.10
2019-02-06T01:56:09.108Z,15.40
2019-02-06T01:58:40.811Z,15.60
2019-02-06T02:01:12.442Z,15.47
2019-02-06T02:03:44.322Z,15.67
2019-02-06T02:06:15.961Z,15.60
2019-02-06T02:08:56.313Z,16.13
2019-02-06T02:11:28.048Z,16.50
2019-02-06T02:13:59.675Z,18.20
2019-02-06T02:16:31.408Z,18.30
2019-02-06T02:19:03.677Z,17.53
2019-02-06T02:21:35.425Z,18.10
2019-02-06T02:24:07.046Z,18.63
2019-02-06T02:26:38.788Z,18.67
2019-02-06T02:29:10.418Z,18.30
2019-02-06T02:31:42.437Z,18.77
2019-02-06T02:34:14.063Z,18.70
2019-02-06T02:36:45.810Z,18.30
2019-02-06T02:39:17.422Z,16.93
2019-02-06T02:41:49.097Z,19.43
2019-02-06T02:44:21.068Z,19.17
2019-02-06T02:46:52.703Z,19.37
2019-02-06T02:49:24.327Z,20.17
2019-02-06T02:51:55.967Z,20.13
2019-02-06T02:54:29.217Z,18.70
2019-02-06T02:57:01.253Z,21.00
2019-02-06T02:59:32.989Z,20.17
2019-02-06T03:02:18.300Z,20.33
2019-02-06T03:04:54.170Z,20.73
2019-02-06T03:07:26.072Z,19.83
2019-02-06T03:10:00.480Z,22.07
2019-02-06T03:12:32.449Z,21.03
2019-02-06T03:15:04.854Z,23.57
2019-02-06T03:17:36.499Z,22.43
2019-02-06T03:20:09.406Z,21.03
2019-02-06T03:22:41.157Z,23.67
2019-02-06T03:25:13.296Z,23.77
2019-02-06T03:27:44.962Z,26.07
2019-02-06T03:30:19.681Z,23.97
2019-02-06T03:32:51.589Z,25.00
2019-02-06T03:35:23.308Z,24.87
2019-02-06T03:37:54.963Z,25.93
2019-02-06T03:40:26.861Z,25.40
2019-02-06T03:42:58.812Z,24.17
2019-02-06T03:45:31.730Z,26.97
2019-02-06T03:48:03.534Z,24.07
2019-02-06T03:50:35.178Z,24.00
2019-02-06T03:53:06.941Z,24.10
2019-02-06T03:55:38.568Z,24.77
2019-02-06T03:58:10.221Z,25.47
2019-02-06T04:00:41.850Z,26.20
2019-02-06T04:03:13.507Z,25.57
2019-02-06T04:05:45.122Z,26.33
2019-02-06T04:08:16.783Z,27.20
2019-02-06T04:10:48.402Z,26.77
2019-02-06T04:13:20.068Z,26.70
2019-02-06T04:15:51.803Z,27.30
2019-02-06T04:18:23.554Z,26.83
2019-02-06T04:20:55.179Z,27.53
2019-02-06T04:23:26.837Z,25.77
2019-02-06T04:25:58.459Z,28.17
2019-02-06T04:28:30.235Z,29.27
2019-02-06T04:31:01.875Z,29.97
2019-02-06T04:33:33.600Z,28.90
2019-02-06T04:36:05.662Z,28.27
2019-02-06T04:38:37.413Z,30.50
2019-02-06T04:41:09.131Z,31.00
2019-02-06T04:43:41.595Z,30.20
2019-02-06T04:46:27.568Z,31.67
2019-02-06T04:48:59.210Z,32.90
2019-02-06T04:51:30.833Z,32.87
2019-02-06T04:54:02.973Z,32.87
2019-02-06T04:56:34.592Z,33.33
2019-02-06T04:59:06.258Z,34.77
2019-02-06T05:01:37.880Z,35.33
2019-02-06T05:04:09.522Z,39.33
2019-02-06T05:06:41.157Z,36.63
2019-02-06T05:09:12.906Z,38.47
2019-02-06T05:11:44.531Z,38.23
2019-02-06T05:14:16.284Z,35.97
2019-02-06T05:16:47.906Z,39.07
2019-02-06T05:19:19.558Z,39.03
2019-02-06T05:21:51.172Z,40.00
2019-02-06T05:24:23.021Z,36.80
2019-02-06T05:26:54.695Z,40.33
2019-02-06T05:29:26.412Z,39.97
2019-02-06T05:31:58.284Z,39.50
2019-02-06T05:34:29.904Z,40.37
2019-02-06T05:37:01.825Z,41.97
2019-02-06T05:39:33.463Z,40.97
2019-02-06T05:42:05.095Z,43.97
2019-02-06T05:44:36.733Z,46.87
2019-02-06T05:47:08.349Z,44.03
2019-02-06T05:49:40.292Z,44.87
2019-02-06T05:52:11.933Z,47.10
2019-02-06T05:54:43.688Z,47.90
2019-02-06T05:57:15.338Z,46.63
2019-02-06T05:59:47.066Z,46.80
2019-02-06T06:02:18.768Z,46.00
2019-02-06T06:04:50.422Z,49.67
2019-02-06T06:07:22.041Z,49.10
2019-02-06T06:09:53.690Z,49.77
2019-02-06T06:12:25.305Z,53.57
2019-02-06T06:14:56.956Z,50.30
2019-02-06T06:17:28.881Z,56.03
2019-02-06T06:20:00.530Z,54.83
2019-02-06T06:22:32.252Z,48.17
2019-02-06T06:25:04.521Z,53.37
2019-02-06T06:27:36.141Z,52.77
2019-02-06T06:30:10.369Z,46.83
2019-02-06T06:32:42.191Z,49.20
2019-02-06T06:35:14.001Z,49.90
2019-02-06T06:37:57.683Z,50.37
2019-02-06T06:40:20.373Z,51.43
2019-02-06T06:42:52.304Z,46.63
2019-02-06T06:45:24.148Z,45.97
2019-02-06T06:47:55.775Z,43.07
2019-02-06T06:50:27.436Z,47.43
2019-02-06T06:52:59.065Z,41.47
2019-02-06T06:55:31.020Z,44.83
2019-02-06T06:58:02.762Z,42.53
2019-02-06T07:00:34.497Z,42.33
2019-02-06T07:03:06.118Z,41.50
2019-02-06T07:05:37.750Z,39.07
2019-02-06T07:08:13.393Z,39.57
2019-02-06T07:10:43.328Z,42.33
2019-02-06T07:13:14.977Z,37.13
2019-02-06T07:15:46.644Z,36.57
2019-02-06T07:18:18.264Z,38.97
2019-02-06T07:20:49.925Z,38.70
2019-02-06T07:23:21.564Z,40.10
2019-02-06T07:25:53.213Z,36.27
2019-02-06T07:28:24.842Z,36.27
2019-02-06T07:30:56.492Z,37.20
2019-02-06T07:33:28.329Z,38.57
2019-02-06T07:35:59.960Z,38.97
2019-02-06T07:38:31.592Z,36.57
2019-02-06T07:41:03.245Z,34.47
2019-02-06T07:43:34.968Z,31.47
2019-02-06T07:46:06.814Z,28.30
2019-02-06T07:48:38.547Z,29.17
2019-02-06T07:51:10.188Z,24.43
2019-02-06T07:53:41.834Z,27.97
2019-02-06T07:56:13.593Z,25.30
2019-02-06T07:58:45.620Z,27.33
2019-02-06T08:01:17.261Z,27.70
2019-02-06T08:03:48.893Z,25.37
2019-02-06T08:06:20.555Z,25.57
2019-02-06T08:08:52.378Z,26.00
2019-02-06T08:11:24.424Z,25.97
2019-02-06T08:13:56.150Z,26.73
2019-02-06T08:16:27.817Z,26.67
2019-02-06T08:22:20.917Z,24.63
2019-02-06T08:24:52.706Z,24.17
2019-02-06T08:27:26.388Z,25.60
2019-02-06T08:29:57.933Z,24.80
2019-02-06T08:32:29.551Z,25.77
2019-02-06T08:35:01.193Z,25.07
2019-02-06T08:37:32.830Z,25.03
2019-02-06T08:40:05.325Z,23.70
2019-02-06T08:42:36.969Z,22.47
2019-02-06T08:45:09.077Z,26.60
2019-02-06T08:47:40.762Z,24.93
2019-02-06T08:50:13.100Z,24.50
2019-02-06T08:52:45.057Z,24.93
2019-02-06T08:55:18.831Z,23.27
2019-02-06T08:57:50.869Z,23.23
2019-02-06T09:00:33.433Z,26.33
2019-02-06T09:03:06.626Z,23.63
2019-02-06T09:05:38.361Z,22.33
2019-02-06T09:08:10.188Z,22.67
2019-02-06T09:10:41.823Z,22.90
2019-02-06T09:13:13.557Z,22.93
2019-02-06T09:15:45.180Z,23.50
2019-02-06T09:18:16.917Z,21.33
2019-02-06T09:20:48.557Z,24.10
2019-02-06T09:23:20.188Z,21.77
2019-02-06T09:25:51.913Z,22.83
2019-02-06T09:28:23.644Z,23.83
2019-02-06T09:30:55.264Z,22.77
2019-02-06T09:33:26.909Z,23.13
2019-02-06T09:35:58.526Z,23.23
2019-02-06T09:38:30.170Z,22.27
2019-02-06T09:41:01.781Z,21.77
2019-02-06T09:43:33.612Z,20.33
2019-02-06T09:46:05.245Z,22.53
2019-02-06T09:48:36.878Z,21.93
2019-02-06T09:51:08.505Z,21.53
2019-02-06T09:53:40.149Z,19.47
2019-02-06T09:56:11.967Z,20.03
2019-02-06T09:58:43.615Z,19.93
2019-02-06T10:01:15.381Z,18.67
2019-02-06T10:03:47.146Z,19.43
2019-02-06T10:06:18.841Z,16.17
2019-02-06T10:08:50.997Z,18.17
2019-02-06T10:11:22.617Z,18.67
2019-02-06T10:13:54.249Z,16.50
2019-02-06T10:16:25.860Z,18.20
2019-02-06T10:18:57.501Z,17.67
2019-02-06T10:21:29.632Z,15.57
2019-02-06T10:24:01.273Z,13.97
2019-02-06T10:26:32.997Z,13.83
2019-02-06T10:29:04.740Z,14.27
2019-02-06T10:31:36.385Z,13.73
2019-02-06T10:34:08.419Z,14.87
2019-02-06T10:36:40.029Z,14.00
2019-02-06T10:39:11.673Z,13.07
2019-02-06T10:41:43.500Z,15.07
2019-02-06T10:44:15.129Z,12.30
2019-02-06T10:46:47.154Z,14.53
2019-02-06T10:49:18.797Z,13.47
2019-02-06T10:51:50.430Z,13.83
2019-02-06T10:54:22.053Z,13.70
2019-02-06T10:56:53.685Z,12.07
2019-02-06T10:59:25.336Z,12.37
2019-02-06T11:01:56.970Z,12.73
2019-02-06T11:04:28.634Z,12.57
2019-02-06T11:07:00.264Z,12.93
2019-02-06T11:09:31.901Z,14.13
2019-02-06T11:12:03.557Z,11.67
2019-02-06T11:14:35.308Z,12.10
2019-02-06T11:17:06.973Z,12.00
2019-02-06T11:19:38.612Z,11.90
2019-02-06T11:22:10.346Z,11.97
2019-02-06T11:24:41.994Z,12.17
2019-02-06T11:27:13.725Z,11.17
2019-02-06T11:29:48.249Z,11.10
2019-02-06T11:32:18.890Z,10.53
2019-02-06T11:34:50.536Z,10.43
2019-02-06T11:37:22.161Z,11.80
2019-02-06T11:39:58.177Z,9.27
2019-02-06T11:42:27.336Z,9.90
2019-02-06T11:44:58.960Z,10.33
2019-02-06T11:47:30.591Z,10.27
2019-02-06T11:50:05.738Z,9.97
2019-02-06T11:52:37.392Z,9.60
2019-02-06T11:55:11.815Z,9.13
2019-02-06T11:57:43.441Z,9.00
2019-02-06T12:00:21.352Z,9.77
2019-02-06T12:02:53.086Z,9.33
2019-02-06T12:05:24.833Z,9.50
2019-02-06T12:07:56.568Z,9.90
2019-02-06T12:10:28.309Z,10.10
2019-02-06T12:12:59.932Z,8.93
2019-02-06T12:15:31.581Z,7.40
2019-02-06T12:18:03.997Z,8.27
2019-02-06T12:20:35.866Z,8.87
2019-02-06T12:23:07.513Z,9.23
2019-02-06T12:25:39.150Z,10.23
2019-02-06T12:28:11.064Z,8.80
2019-02-06T12:30:42.809Z,12.67
2019-02-06T12:33:14.456Z,11.57
2019-02-06T12:35:46.086Z,10.90
2019-02-06T12:38:17.739Z,11.17
2019-02-06T12:40:49.790Z,10.60
2019-02-06T12:43:21.513Z,9.63
2019-02-06T12:45:53.142Z,9.57
2019-02-06T12:48:24.871Z,8.60
2019-02-06T12:50:56.502Z,11.63
2019-02-06T12:53:28.120Z,10.57
2019-02-06T12:56:01.069Z,10.73
2019-02-06T12:58:32.796Z,10.43
2019-02-06T13:01:04.836Z,9.10
2019-02-06T13:03:36.478Z,10.60
2019-02-06T13:06:08.206Z,9.83
2019-02-06T13:08:40.125Z,11.10
2019-02-06T13:11:11.781Z,9.90
2019-02-06T13:13:45.333Z,9.73
2019-02-06T13:16:16.938Z,9.57
2019-02-06T13:18:48.652Z,8.37
2019-02-06T13:21:20.802Z,8.53
2019-02-06T13:23:52.520Z,9.50
2019-02-06T13:26:24.193Z,9.67
2019-02-06T13:28:55.837Z,10.03
2019-02-06T13:31:27.490Z,10.37
2019-02-06T13:33:59.473Z,11.07
2019-02-06T13:36:31.262Z,11.60
2019-02-06T13:39:08.378Z,10.70
2019-02-06T13:41:40.017Z,11.23
2019-02-06T13:44:11.745Z,10.23
2019-02-06T13:46:53.018Z,11.63
2019-02-06T13:49:17.113Z,10.63
2019-02-06T13:51:48.833Z,11.13
2019-02-06T13:54:20.452Z,10.50
2019-02-06T13:56:52.106Z,10.27
2019-02-06T13:59:23.909Z,11.00
2019-02-06T14:01:55.568Z,12.03
2019-02-06T14:04:27.202Z,12.20
2019-02-06T14:06:58.908Z,11.27
2019-02-06T14:09:30.651Z,10.27
2019-02-06T14:12:02.396Z,11.73
2019-02-06T14:14:34.037Z,11.33
2019-02-06T14:17:05.792Z,12.10
2019-02-06T14:19:37.429Z,10.93
2019-02-06T14:22:09.997Z,12.13
2019-02-06T14:24:46.016Z,11.77
2019-02-06T14:28:04.642Z,12.33
2019-02-06T14:31:04.897Z,11.83
2019-02-06T14:33:52.462Z,11.77
2019-02-06T14:36:54.885Z,13.37
2019-02-06T14:39:55.024Z,12.60
2019-02-06T14:42:34.556Z,12.30
2019-02-06T14:46:18.477Z,11.80
2019-02-06T14:49:14.028Z,13.03
2019-02-06T14:52:33.557Z,13.33
2019-02-06T14:55:23.662Z,12.43
2019-02-06T14:58:27.265Z,13.43
2019-02-06T15:01:19.565Z,14.43
2019-02-06T15:04:42.630Z,13.30
2019-02-06T15:07:33.492Z,13.13
2019-02-06T15:10:11.389Z,13.03
2019-02-06T15:13:34.313Z,12.90
2019-02-06T15:16:16.288Z,13.33
2019-02-06T15:19:00.416Z,14.40
2019-02-06T15:21:45.341Z,13.23
2019-02-06T15:24:29.724Z,13.23
2019-02-06T15:27:31.681Z,12.83
2019-02-06T15:30:25.853Z,12.00
2019-02-06T15:33:23.290Z,12.80
2019-02-06T15:36:18.768Z,12.93
2019-02-06T15:39:09.219Z,12.23
2019-02-06T15:41:57.769Z,12.93
2019-02-06T15:44:51.169Z,13.13
2019-02-06T15:47:49.994Z,11.73
2019-02-06T15:50:36.657Z,11.63
2019-02-06T15:53:39.249Z,12.97
2019-02-06T15:56:18.493Z,13.33
2019-02-06T15:59:09.262Z,12.80
2019-02-06T16:02:38.131Z,12.93
2019-02-06T16:05:45.638Z,12.47
2019-02-06T16:09:14.557Z,13.13
2019-02-06T16:12:34.025Z,12.37
2019-02-06T16:15:15.977Z,12.10
2019-02-06T16:17:57.453Z,13.10
2019-02-06T16:21:07.146Z,13.33
2019-02-06T16:24:04.400Z,13.37
2019-02-06T16:27:02.191Z,13.70
2019-02-06T16:30:00.568Z,13.83
2019-02-06T16:33:07.477Z,14.47
2019-02-06T16:35:57.941Z,14.27
2019-02-06T16:38:37.623Z,14.70
2019-02-06T16:42:02.336Z,15.03
2019-02-06T16:44:57.351Z,15.37
2019-02-06T16:48:26.186Z,15.73
2019-02-06T16:51:06.539Z,15.07
2019-02-06T16:54:08.326Z,15.97
2019-02-06T16:57:04.017Z,16.03
2019-02-06T17:00:05.803Z,15.80
2019-02-06T17:03:31.505Z,15.47
2019-02-06T17:06:11.450Z,16.13
2019-02-06T17:09:18.100Z,16.27
2019-02-06T17:12:17.606Z,16.37
2019-02-06T17:15:05.125Z,15.73
2019-02-06T17:17:47.423Z,17.17
2019-02-06T17:20:56.864Z,17.30
2019-02-06T17:24:08.180Z,15.90
2019-02-06T17:27:03.706Z,16.97
2019-02-06T17:30:15.455Z,17.50
2019-02-06T17:33:09.320Z,17.80
2019-02-06T17:35:57.676Z,15.63
2019-02-06T17:38:44.236Z,16.20
2019-02-06T17:41:31.425Z,17.00
2019-02-06T17:44:28.902Z,16.03
2019-02-06T17:47:36.528Z,15.90
2019-02-06T17:50:53.613Z,17.53
2019-02-06T17:53:39.291Z,16.07
2019-02-06T17:56:11.025Z,17.23
2019-02-06T17:58:43.128Z,17.43
2019-02-06T18:01:36.588Z,17.70
2019-02-06T18:04:10.990Z,16.30
2019-02-06T18:06:42.630Z,17.10
2019-02-06T18:09:15.877Z,17.17
2019-02-06T18:11:49.630Z,15.83
2019-02-06T18:14:21.357Z,17.60
2019-02-06T18:16:53.099Z,16.60
2019-02-06T18:19:24.848Z,16.60
2019-02-06T18:21:56.983Z,15.47
2019-02-06T18:24:28.781Z,16.30
2019-02-06T18:27:05.225Z,15.77
2019-02-06T18:29:36.972Z,17.13
2019-02-06T18:32:08.929Z,16.30
2019-02-06T18:34:41.262Z,15.83
2019-02-06T18:37:13.930Z,16.70
2019-02-06T18:39:45.665Z,16.00
2019-02-06T18:42:17.606Z,16.90
2019-02-06T18:44:49.349Z,14.87
2019-02-06T18:47:21.542Z,16.50
2019-02-06T18:49:53.293Z,14.90
2019-02-06T18:52:25.069Z,15.77
2019-02-06T18:54:56.799Z,16.60
2019-02-06T18:57:28.602Z,15.50
2019-02-06T19:00:00.486Z,14.30
2019-02-06T19:02:44.175Z,15.70
2019-02-06T19:05:17.200Z,15.13
2019-02-06T19:07:50.285Z,14.90
2019-02-06T19:10:25.040Z,13.97
2019-02-06T19:12:57.273Z,15.67
2019-02-06T19:15:29.511Z,16.70
2019-02-06T19:18:01.466Z,16.80
2019-02-06T19:20:35.700Z,15.03
2019-02-06T19:23:06.940Z,14.87
2019-02-06T19:25:38.673Z,15.20
2019-02-06T19:28:10.437Z,13.73
2019-02-06T19:30:42.560Z,14.57
2019-02-06T19:33:17.050Z,15.13
2019-02-06T19:35:47.871Z,15.77
2019-02-06T19:38:19.533Z,14.47
2019-02-06T19:40:51.289Z,16.50
2019-02-06T19:43:23.258Z,14.80
2019-02-06T19:45:54.914Z,14.13
2019-02-06T19:48:26.670Z,15.00
2019-02-06T19:50:58.459Z,15.20
2019-02-06T19:53:30.235Z,15.63
2019-02-06T19:56:02.338Z,15.87
2019-02-06T19:58:34.102Z,14.83
2019-02-06T20:01:05.980Z,14.93
2019-02-06T20:03:37.768Z,13.87
2019-02-06T20:06:27.306Z,13.90
2019-02-06T20:09:00.835Z,14.37
2019-02-06T20:11:32.767Z,13.60
2019-02-06T20:14:04.744Z,13.23
2019-02-06T20:16:36.506Z,14.23
2019-02-06T20:19:08.330Z,13.13
2019-02-06T20:21:40.076Z,13.80
2019-02-06T20:24:12.132Z,12.87
2019-02-06T20:26:44.010Z,13.03
2019-02-06T20:29:15.915Z,14.53
2019-02-06T20:31:47.711Z,13.73
2019-02-06T20:34:19.558Z,13.13
2019-02-06T20:36:51.688Z,13.00
2019-02-06T20:39:23.572Z,12.93
2019-02-06T20:41:55.498Z,13.03
2019-02-06T20:44:29.778Z,13.50
2019-02-06T20:47:00.926Z,13.67
2019-02-06T20:49:33.197Z,13.63
2019-02-06T20:52:05.139Z,12.63
2019-02-06T20:54:36.967Z,13.17
2019-02-06T20:57:13.538Z,13.07
2019-02-06T20:59:42.366Z,11.87
2019-02-06T21:02:14.150Z,12.23
2019-02-06T21:04:47.107Z,12.20
2019-02-06T21:07:18.858Z,12.93
2019-02-06T21:09:51.002Z,13.97
2019-02-06T21:12:22.760Z,22.90
2019-02-06T21:14:54.512Z,12.97
2019-02-06T21:17:26.185Z,13.00
2019-02-06T21:19:58.674Z,12.67
2019-02-06T21:22:30.529Z,12.97
2019-02-06T21:25:04.041Z,12.27
2019-02-06T21:27:36.307Z,11.30
2019-02-06T21:30:23.435Z,12.67
2019-02-06T21:32:55.286Z,12.37
2019-02-06T21:35:27.118Z,12.30
2019-02-06T21:37:59.383Z,11.37
2019-02-06T21:40:32.175Z,12.17
2019-02-06T21:43:04.631Z,13.57
2019-02-06T21:45:36.389Z,12.77
2019-02-06T21:48:08.149Z,13.00
2019-02-06T21:50:40.198Z,13.97
2019-02-06T21:53:11.934Z,13.30
2019-02-06T21:55:43.679Z,12.83
2019-02-06T21:58:15.331Z,12.13
2019-02-06T22:00:47.077Z,11.83
2019-02-06T22:03:19.024Z,12.97
2019-02-06T22:05:50.679Z,12.47
2019-02-06T22:08:22.314Z,12.37
2019-02-06T22:10:54.172Z,12.23
2019-02-06T22:13:25.897Z,12.63
2019-02-06T22:15:57.742Z,11.80
2019-02-06T22:18:29.386Z,12.87
2019-02-06T22:21:01.117Z,12.57
2019-02-06T22:23:32.745Z,12.70
2019-02-06T22:26:04.491Z,12.00
2019-02-06T22:28:36.316Z,12.70
2019-02-06T22:31:07.965Z,12.67
2019-02-06T22:33:39.693Z,13.27
2019-02-06T22:36:11.340Z,12.10
2019-02-06T22:38:42.965Z,14.20
2019-02-06T22:41:14.705Z,14.00
2019-02-06T22:43:46.389Z,13.80
2019-02-06T22:46:18.029Z,14.27
2019-02-06T22:48:49.745Z,15.17
2019-02-06T22:51:21.381Z,13.57
2019-02-06T22:53:53.114Z,13.50
2019-02-06T22:56:24.748Z,14.37
2019-02-06T22:58:56.393Z,12.87
2019-02-06T23:01:31.816Z,13.67
2019-02-06T23:04:04.151Z,13.07
2019-02-06T23:06:35.884Z,14.30
2019-02-06T23:09:08.069Z,13.10
2019-02-06T23:11:39.685Z,12.60
2019-02-06T23:14:17.467Z,14.73
2019-02-06T23:16:45.141Z,13.47
2019-02-06T23:19:16.877Z,14.60
2019-02-06T23:21:48.617Z,12.50
2019-02-06T23:24:20.259Z,13.83
2019-02-06T23:26:51.927Z,15.17
2019-02-06T23:29:24.198Z,14.97
2019-02-06T23:31:55.836Z,12.83
2019-02-06T23:34:27.567Z,13.47
2019-02-06T23:36:59.193Z,13.03
2019-02-06T23:39:30.905Z,13.87
2019-02-06T23:42:03.149Z,13.90
2019-02-06T23:44:34.782Z,13.57
2019-02-06T23:47:06.521Z,13.13
2019-02-06T23:49:38.137Z,14.80
2019-02-06T23:52:09.765Z,14.47
2019-02-06T23:54:41.490Z,14.27
2019-02-06T23:57:13.226Z,13.93
2019-02-06T23:59:44.855Z,12.67
